createdAt,value
2023-04-20T00:00:34.611Z,9.18
2023-04-20T00:03:01.138Z,8.52
2023-04-20T00:05:27.746Z,8.43
2023-04-20T00:07:54.233Z,8.72
2023-04-20T00:10:20.625Z,8.31
2023-04-20T00:12:47.008Z,8.34
2023-04-20T00:15:13.360Z,7.95
2023-04-20T00:17:39.859Z,8.23
2023-04-20T00:20:06.287Z,7.81
2023-04-20T00:22:32.684Z,8.03
2023-04-20T00:24:59.079Z,7.73
2023-04-20T00:27:25.490Z,8.56
2023-04-20T00:29:51.831Z,7.85
2023-04-20T00:32:18.209Z,7.95
2023-04-20T00:34:44.562Z,7.80
2023-04-20T00:37:10.898Z,8.18
2023-04-20T00:39:37.259Z,8.01
2023-04-20T00:42:03.598Z,8.28
2023-04-20T00:44:29.989Z,7.96
2023-04-20T00:46:56.367Z,8.35
2023-04-20T00:49:22.909Z,8.36
2023-04-20T00:51:49.250Z,8.01
2023-04-20T00:54:15.633Z,8.08
2023-04-20T00:56:42.007Z,8.23
2023-04-20T00:59:08.400Z,8.83
2023-04-20T01:01:34.826Z,8.29
2023-04-20T01:04:01.330Z,8.61
2023-04-20T01:06:27.765Z,8.50
2023-04-20T01:08:54.153Z,8.61
2023-04-20T01:11:20.519Z,8.49
2023-04-20T01:13:46.864Z,8.65
2023-04-20T01:16:13.280Z,8.96
2023-04-20T01:18:39.674Z,8.74
2023-04-20T01:21:06.044Z,8.85
2023-04-20T01:23:32.389Z,8.80
2023-04-20T01:25:58.745Z,8.77
2023-04-20T01:28:25.125Z,8.66
2023-04-20T01:30:51.528Z,8.75
2023-04-20T01:33:17.936Z,9.06
2023-04-20T01:35:44.284Z,8.67
2023-04-20T01:38:10.669Z,9.30
2023-04-20T01:40:37.020Z,9.27
2023-04-20T01:43:03.369Z,9.42
2023-04-20T01:45:29.701Z,9.14
2023-04-20T01:47:56.091Z,9.45
2023-04-20T01:50:22.519Z,9.09
2023-04-20T01:52:48.904Z,9.19
2023-04-20T01:55:15.301Z,9.03
2023-04-20T01:57:41.649Z,8.87
2023-04-20T02:00:08.031Z,8.92
2023-04-20T02:02:34.443Z,9.26
2023-04-20T02:05:00.888Z,9.07
2023-04-20T02:07:27.237Z,9.49
2023-04-20T02:09:53.566Z,9.05
2023-04-20T02:12:19.966Z,8.78
2023-04-20T02:14:46.307Z,8.29
2023-04-20T02:17:12.793Z,8.45
2023-04-20T02:19:39.216Z,8.77
2023-04-20T02:22:05.612Z,8.28
2023-04-20T02:24:32.016Z,8.94
2023-04-20T02:26:58.397Z,8.56
2023-04-20T02:29:24.795Z,8.62
2023-04-20T02:31:51.137Z,8.03
2023-04-20T02:34:17.466Z,8.02
2023-04-20T02:36:43.820Z,7.93
2023-04-20T02:39:10.149Z,7.32
2023-04-20T02:41:36.491Z,7.54
2023-04-20T02:44:02.867Z,7.24
2023-04-20T02:46:29.369Z,7.08
2023-04-20T02:48:55.854Z,6.97
2023-04-20T02:51:23.054Z,6.65
2023-04-20T02:53:49.425Z,7.02
2023-04-20T02:56:15.763Z,7.01
2023-04-20T02:58:42.138Z,6.83
2023-04-20T03:01:08.521Z,6.90
2023-04-20T03:03:35.084Z,6.81
2023-04-20T03:06:01.602Z,7.06
2023-04-20T03:08:27.982Z,6.95
2023-04-20T03:10:54.327Z,7.25
2023-04-20T03:13:20.712Z,6.74
2023-04-20T03:15:47.115Z,6.90
2023-04-20T03:18:13.506Z,7.04
2023-04-20T03:20:39.894Z,7.08
2023-04-20T03:23:06.259Z,7.10
2023-04-20T03:25:32.639Z,6.83
2023-04-20T03:27:58.989Z,7.01
2023-04-20T03:30:25.378Z,6.94
2023-04-20T03:32:51.808Z,7.01
2023-04-20T03:35:18.232Z,6.84
2023-04-20T03:37:44.593Z,6.67
2023-04-20T03:40:10.937Z,7.01
2023-04-20T03:42:37.316Z,6.60
2023-04-20T03:45:03.664Z,6.90
2023-04-20T03:47:30.030Z,6.98
2023-04-20T03:49:56.426Z,6.71
2023-04-20T03:52:22.821Z,6.66
2023-04-20T03:54:49.223Z,6.83
2023-04-20T03:57:15.617Z,6.63
2023-04-20T03:59:41.988Z,8.21
2023-04-20T04:02:08.405Z,9.08
2023-04-20T04:04:34.968Z,6.67
2023-04-20T04:07:01.592Z,9.09
2023-04-20T04:09:27.931Z,7.39
2023-04-20T04:11:54.276Z,7.00
2023-04-20T04:14:20.663Z,6.64
2023-04-20T04:16:47.055Z,6.85
2023-04-20T04:19:13.462Z,6.25
2023-04-20T04:21:39.841Z,6.74
2023-04-20T04:24:06.191Z,6.20
2023-04-20T04:26:32.534Z,6.66
2023-04-20T04:28:58.874Z,6.47
2023-04-20T04:31:25.314Z,6.88
2023-04-20T04:33:51.775Z,6.63
2023-04-20T04:36:18.117Z,6.44
2023-04-20T04:38:44.519Z,6.75
2023-04-20T04:41:10.901Z,6.66
2023-04-20T04:43:37.257Z,6.95
2023-04-20T04:46:03.610Z,6.62
2023-04-20T04:48:30.021Z,6.29
2023-04-20T04:50:56.431Z,6.82
2023-04-20T04:53:22.836Z,6.85
2023-04-20T04:55:49.180Z,6.82
2023-04-20T04:58:15.558Z,6.71
2023-04-20T05:00:41.955Z,6.75
2023-04-20T05:03:08.479Z,6.80
2023-04-20T05:05:35.007Z,7.04
2023-04-20T05:08:01.337Z,7.03
2023-04-20T05:10:27.732Z,6.94
2023-04-20T05:12:54.072Z,7.10
2023-04-20T05:15:20.455Z,6.75
2023-04-20T05:17:46.850Z,7.06
2023-04-20T05:20:13.289Z,7.25
2023-04-20T05:22:39.688Z,6.92
2023-04-20T05:25:06.293Z,6.68
2023-04-20T05:27:32.732Z,6.49
2023-04-20T05:30:12.753Z,6.72
2023-04-20T05:32:45.443Z,6.73
2023-04-20T05:35:11.853Z,6.98
2023-04-20T05:37:38.231Z,6.84
2023-04-20T05:40:04.622Z,7.31
2023-04-20T05:42:31.030Z,7.01
2023-04-20T05:44:57.409Z,7.06
2023-04-20T05:47:23.883Z,6.93
2023-04-20T05:49:50.302Z,7.01
2023-04-20T05:52:16.636Z,7.05
2023-04-20T05:54:42.968Z,7.09
2023-04-20T05:57:09.290Z,7.14
2023-04-20T05:59:35.665Z,6.97
2023-04-20T06:02:02.089Z,6.97
2023-04-20T06:04:28.706Z,7.00
2023-04-20T06:06:55.343Z,6.84
2023-04-20T06:09:21.688Z,6.82
2023-04-20T06:11:48.072Z,6.89
2023-04-20T06:14:14.421Z,6.92
2023-04-20T06:16:40.761Z,6.88
2023-04-20T06:19:07.141Z,7.00
2023-04-20T06:21:33.530Z,6.94
2023-04-20T06:23:59.914Z,6.82
2023-04-20T06:26:26.298Z,6.88
2023-04-20T06:28:52.643Z,6.68
2023-04-20T06:31:19.100Z,6.75
2023-04-20T06:33:45.539Z,6.99
2023-04-20T06:36:11.918Z,6.57
2023-04-20T06:38:38.271Z,6.96
2023-04-20T06:41:04.643Z,7.10
2023-04-20T06:43:31.041Z,7.03
2023-04-20T06:45:57.427Z,6.80
2023-04-20T06:48:32.120Z,6.73
2023-04-20T06:50:59.480Z,7.12
2023-04-20T06:53:25.869Z,6.92
2023-04-20T06:55:52.251Z,11.17
2023-04-20T06:58:18.642Z,6.83
2023-04-20T07:00:44.985Z,6.89
2023-04-20T07:03:11.580Z,6.93
2023-04-20T07:05:38.103Z,7.31
2023-04-20T07:08:04.476Z,6.63
2023-04-20T07:10:30.864Z,6.40
2023-04-20T07:12:57.201Z,6.72
2023-04-20T07:15:23.574Z,6.54
2023-04-20T07:17:49.960Z,6.77
2023-04-20T07:20:16.340Z,6.70
2023-04-20T07:22:42.712Z,6.78
2023-04-20T07:25:09.142Z,6.67
2023-04-20T07:27:35.546Z,6.64
2023-04-20T07:30:01.893Z,7.21
2023-04-20T07:32:28.274Z,6.58
2023-04-20T07:34:54.680Z,6.83
2023-04-20T07:37:21.025Z,6.45
2023-04-20T07:39:47.427Z,6.51
2023-04-20T07:42:13.774Z,6.29
2023-04-20T07:44:40.144Z,6.03
2023-04-20T07:47:06.503Z,6.00
2023-04-20T07:49:32.946Z,5.83
2023-04-20T07:52:12.911Z,6.14
2023-04-20T07:54:42.551Z,5.93
2023-04-20T07:57:08.937Z,5.68
2023-04-20T07:59:35.291Z,5.71
2023-04-20T08:02:01.820Z,5.57
2023-04-20T08:04:28.452Z,5.95
2023-04-20T08:06:54.971Z,6.18
2023-04-20T08:09:21.356Z,6.22
2023-04-20T08:11:47.784Z,6.20
2023-04-20T08:14:14.135Z,6.08
2023-04-20T08:16:40.576Z,6.16
2023-04-20T08:19:07.007Z,6.01
2023-04-20T08:21:33.406Z,6.24
2023-04-20T08:23:59.791Z,5.79
2023-04-20T08:26:26.201Z,5.97
2023-04-20T08:28:52.562Z,6.36
2023-04-20T08:31:18.981Z,6.18
2023-04-20T08:33:45.539Z,6.05
2023-04-20T08:36:11.972Z,6.45
2023-04-20T08:38:38.359Z,6.30
2023-04-20T08:41:04.774Z,6.59
2023-04-20T08:43:31.168Z,6.32
2023-04-20T08:45:57.525Z,6.74
2023-04-20T08:48:23.872Z,6.43
2023-04-20T08:50:50.257Z,6.46
2023-04-20T08:53:16.650Z,6.44
2023-04-20T08:55:43.002Z,7.04
2023-04-20T08:58:09.345Z,6.47
2023-04-20T09:00:35.679Z,6.58
2023-04-20T09:03:02.313Z,6.34
2023-04-20T09:05:29.009Z,6.45
2023-04-20T09:07:55.467Z,6.49
2023-04-20T09:10:21.930Z,6.81
2023-04-20T09:12:48.289Z,6.88
2023-04-20T09:15:14.677Z,7.34
2023-04-20T09:17:41.412Z,7.70
2023-04-20T09:20:07.991Z,7.53
2023-04-20T09:22:34.361Z,7.60
2023-04-20T09:25:00.751Z,7.41
2023-04-20T09:27:27.104Z,7.48
2023-04-20T09:29:53.480Z,7.97
2023-04-20T09:32:19.886Z,8.03
2023-04-20T09:34:46.253Z,8.45
2023-04-20T09:37:12.598Z,8.15
2023-04-20T09:39:38.932Z,7.97
2023-04-20T09:42:05.314Z,8.08
2023-04-20T09:44:31.673Z,8.15
2023-04-20T09:46:58.080Z,8.88
2023-04-20T09:49:24.424Z,8.23
2023-04-20T09:51:50.839Z,7.92
2023-04-20T09:54:17.410Z,7.93
2023-04-20T09:56:43.986Z,8.19
2023-04-20T09:59:10.322Z,8.22
2023-04-20T10:01:36.725Z,8.46
2023-04-20T10:04:03.340Z,8.52
2023-04-20T10:06:29.911Z,8.90
2023-04-20T10:08:56.320Z,8.83
2023-04-20T10:11:22.671Z,8.86
2023-04-20T10:13:49.056Z,8.90
2023-04-20T10:16:15.436Z,8.74
2023-04-20T10:18:41.970Z,8.02
2023-04-20T10:21:08.398Z,8.55
2023-04-20T10:23:34.756Z,9.10
2023-04-20T10:26:01.330Z,9.08
2023-04-20T10:28:27.761Z,8.84
2023-04-20T10:30:54.246Z,8.66
2023-04-20T10:33:20.806Z,8.97
2023-04-20T10:35:47.218Z,8.84
2023-04-20T10:38:13.604Z,9.11
2023-04-20T10:40:39.956Z,8.84
2023-04-20T10:43:06.298Z,8.73
2023-04-20T10:45:32.629Z,8.85
2023-04-20T10:47:59.062Z,8.91
2023-04-20T10:50:25.474Z,8.73
2023-04-20T10:52:51.810Z,8.99
2023-04-20T10:55:18.144Z,9.26
2023-04-20T10:57:44.472Z,9.15
2023-04-20T11:00:10.849Z,10.54
2023-04-20T11:02:37.318Z,10.13
2023-04-20T11:05:03.878Z,11.32
2023-04-20T11:07:30.317Z,10.93
2023-04-20T11:09:56.706Z,9.77
2023-04-20T11:12:23.089Z,9.33
2023-04-20T11:14:49.479Z,9.55
2023-04-20T11:17:15.888Z,9.45
2023-04-20T11:19:42.266Z,9.29
2023-04-20T11:22:08.601Z,9.63
2023-04-20T11:24:35.009Z,10.36
2023-04-20T11:27:01.370Z,9.37
2023-04-20T11:29:27.742Z,8.54
2023-04-20T11:31:54.187Z,7.65
2023-04-20T11:34:20.653Z,7.22
2023-04-20T11:36:46.996Z,5.51
2023-04-20T11:39:13.388Z,4.84
2023-04-20T11:41:39.759Z,4.21
2023-04-20T11:44:06.177Z,4.51
2023-04-20T11:46:32.551Z,4.39
2023-04-20T11:48:58.953Z,4.50
2023-04-20T11:51:25.304Z,4.31
2023-04-20T11:53:51.698Z,4.51
2023-04-20T11:56:18.126Z,4.64
2023-04-20T11:58:44.495Z,5.20
2023-04-20T12:01:10.877Z,4.66
2023-04-20T12:03:37.397Z,4.90
2023-04-20T12:06:03.934Z,4.80
2023-04-20T12:08:30.426Z,4.87
2023-04-20T12:10:58.537Z,5.20
2023-04-20T12:13:25.343Z,5.34
2023-04-20T12:15:51.802Z,5.44
2023-04-20T12:18:18.183Z,5.41
2023-04-20T12:20:44.565Z,5.02
2023-04-20T12:23:10.959Z,5.08
2023-04-20T12:25:37.344Z,5.83
2023-04-20T12:28:03.717Z,5.60
2023-04-20T12:30:30.065Z,5.48
2023-04-20T12:32:56.461Z,6.33
2023-04-20T12:35:22.903Z,6.25
2023-04-20T12:37:49.282Z,5.67
2023-04-20T12:40:15.613Z,4.59
2023-04-20T12:42:41.953Z,4.42
2023-04-20T12:45:08.343Z,4.43
2023-04-20T12:47:34.719Z,4.44
2023-04-20T12:50:01.119Z,3.98
2023-04-20T12:52:27.557Z,3.81
2023-04-20T12:54:53.929Z,3.80
2023-04-20T12:57:20.270Z,3.81
2023-04-20T12:59:46.648Z,3.50
2023-04-20T13:02:13.116Z,3.59
2023-04-20T13:04:39.578Z,3.54
2023-04-20T13:07:05.946Z,3.45
2023-04-20T13:09:32.334Z,3.43
2023-04-20T13:11:58.678Z,3.72
2023-04-20T13:14:25.057Z,3.46
2023-04-20T13:16:53.704Z,3.41
2023-04-20T13:19:22.576Z,3.35
2023-04-20T13:21:48.989Z,3.74
2023-04-20T13:24:15.469Z,3.85
2023-04-20T13:26:41.990Z,3.84
2023-04-20T13:29:08.360Z,4.20
2023-04-20T13:31:34.749Z,3.68
2023-04-20T13:34:01.160Z,3.61
2023-04-20T13:36:27.535Z,3.65
2023-04-20T13:38:53.908Z,3.96
2023-04-20T13:41:20.300Z,3.52
2023-04-20T13:43:46.688Z,3.82
2023-04-20T13:46:13.113Z,3.47
2023-04-20T13:48:39.471Z,3.43
2023-04-20T13:51:05.814Z,3.26
2023-04-20T13:53:32.188Z,3.08
2023-04-20T13:55:58.590Z,3.48
2023-04-20T13:58:25.008Z,3.35
2023-04-20T14:00:51.446Z,3.43
2023-04-20T14:03:18.043Z,3.57
2023-04-20T14:05:44.476Z,3.28
2023-04-20T14:08:10.815Z,3.58
2023-04-20T14:10:37.153Z,3.29
2023-04-20T14:13:03.536Z,3.39
2023-04-20T14:15:29.931Z,3.46
2023-04-20T14:17:56.356Z,3.97
2023-04-20T14:20:22.717Z,4.42
2023-04-20T14:22:49.117Z,4.27
2023-04-20T14:25:15.487Z,4.66
2023-04-20T14:27:41.851Z,4.07
2023-04-20T14:30:08.241Z,4.71
2023-04-20T14:32:34.675Z,5.08
2023-04-20T14:35:02.241Z,5.01
2023-04-20T14:37:29.547Z,4.41
2023-04-20T14:39:55.931Z,4.95
2023-04-20T14:42:22.419Z,5.35
2023-04-20T14:44:49.150Z,4.16
2023-04-20T14:47:15.527Z,7.05
2023-04-20T14:49:41.875Z,4.86
2023-04-20T14:52:08.277Z,4.77
2023-04-20T14:54:34.669Z,4.81
2023-04-20T14:57:01.054Z,6.52
2023-04-20T14:59:27.403Z,5.01
2023-04-20T15:02:02.372Z,4.69
2023-04-20T15:04:30.001Z,3.92
2023-04-20T15:06:56.631Z,4.40
2023-04-20T15:09:23.006Z,4.37
2023-04-20T15:11:49.384Z,4.40
2023-04-20T15:14:15.986Z,4.82
2023-04-20T15:16:42.473Z,4.89
2023-04-20T15:19:08.853Z,4.62
2023-04-20T15:21:35.226Z,4.83
2023-04-20T15:24:01.582Z,4.92
2023-04-20T15:26:27.922Z,4.80
2023-04-20T15:28:54.259Z,4.88
2023-04-20T15:31:20.655Z,5.20
2023-04-20T15:33:47.054Z,6.46
2023-04-20T15:36:13.435Z,6.68
2023-04-20T15:38:39.785Z,6.73
2023-04-20T15:41:06.169Z,6.96
2023-04-20T15:43:32.564Z,7.30
2023-04-20T15:45:58.970Z,6.94
2023-04-20T15:48:25.359Z,7.28
2023-04-20T15:50:51.748Z,7.42
2023-04-20T15:53:18.146Z,6.99
2023-04-20T15:55:44.536Z,7.32
2023-04-20T15:58:10.887Z,7.33
2023-04-20T16:00:37.272Z,8.21
2023-04-20T16:03:03.804Z,6.94
2023-04-20T16:05:30.270Z,6.42
2023-04-20T16:07:56.615Z,6.59
2023-04-20T16:10:22.953Z,7.27
2023-04-20T16:12:49.316Z,7.82
2023-04-20T16:15:15.655Z,6.93
2023-04-20T16:17:42.057Z,6.44
2023-04-20T16:20:08.468Z,7.03
2023-04-20T16:22:34.812Z,7.07
2023-04-20T16:25:01.149Z,7.52
2023-04-20T16:27:27.480Z,8.20
2023-04-20T16:29:53.825Z,8.91
2023-04-20T16:32:20.165Z,7.40
2023-04-20T16:34:46.553Z,7.62
2023-04-20T16:37:12.895Z,7.80
2023-04-20T16:39:39.232Z,7.78
2023-04-20T16:42:05.563Z,7.63
2023-04-20T16:44:31.940Z,8.22
2023-04-20T16:46:58.359Z,7.59
2023-04-20T16:49:24.757Z,7.70
2023-04-20T16:51:51.147Z,7.37
2023-04-20T16:54:17.847Z,7.39
2023-04-20T16:56:44.389Z,7.65
2023-04-20T16:59:10.729Z,7.71
2023-04-20T17:01:37.131Z,7.45
2023-04-20T17:04:03.652Z,7.22
2023-04-20T17:06:30.160Z,7.70
2023-04-20T17:08:56.540Z,7.49
2023-04-20T17:11:22.946Z,7.58
2023-04-20T17:13:49.287Z,7.93
2023-04-20T17:16:15.695Z,8.56
2023-04-20T17:18:42.152Z,7.81
2023-04-20T17:21:08.518Z,8.26
2023-04-20T17:23:34.859Z,8.05
2023-04-20T17:26:01.247Z,7.85
2023-04-20T17:28:27.628Z,8.20
2023-04-20T17:30:53.998Z,8.17
2023-04-20T17:33:20.338Z,8.14
2023-04-20T17:35:46.726Z,8.18
2023-04-20T17:38:13.115Z,8.44
2023-04-20T17:40:39.538Z,8.24
2023-04-20T17:43:05.940Z,8.40
2023-04-20T17:45:32.337Z,9.21
2023-04-20T17:47:58.768Z,8.93
2023-04-20T17:50:25.139Z,8.36
2023-04-20T17:52:51.628Z,8.35
2023-04-20T17:55:18.079Z,8.03
2023-04-20T17:57:44.458Z,8.29
2023-04-20T18:00:10.896Z,8.56
2023-04-20T18:02:37.375Z,8.60
2023-04-20T18:05:03.837Z,9.19
2023-04-20T18:07:30.222Z,8.88
2023-04-20T18:09:56.621Z,8.85
2023-04-20T18:12:23.003Z,8.83
2023-04-20T18:14:49.366Z,8.66
2023-04-20T18:17:15.727Z,9.16
2023-04-20T18:19:42.100Z,8.94
2023-04-20T18:22:08.504Z,9.34
2023-04-20T18:24:34.851Z,9.12
2023-04-20T18:27:01.170Z,9.08
2023-04-20T18:29:27.506Z,8.91
2023-04-20T18:31:53.938Z,7.77
2023-04-20T18:34:20.466Z,6.51
2023-04-20T18:36:46.949Z,6.40
2023-04-20T18:39:13.298Z,5.70
2023-04-20T18:41:39.658Z,4.77
2023-04-20T18:44:06.049Z,4.47
2023-04-20T18:46:32.483Z,4.36
2023-04-20T18:48:58.867Z,4.17
2023-04-20T18:51:25.199Z,4.67
2023-04-20T18:53:51.572Z,5.27
2023-04-20T18:56:17.964Z,5.39
2023-04-20T18:58:44.329Z,6.11
2023-04-20T19:01:10.755Z,6.94
2023-04-20T19:03:37.234Z,6.15
2023-04-20T19:06:03.608Z,6.61
2023-04-20T19:08:29.952Z,7.62
2023-04-20T19:10:56.338Z,8.11
2023-04-20T19:13:22.741Z,9.10
2023-04-20T19:15:49.082Z,7.62
2023-04-20T19:18:15.417Z,7.80
2023-04-20T19:20:41.751Z,6.53
2023-04-20T19:23:08.135Z,7.91
2023-04-20T19:25:34.529Z,7.09
2023-04-20T19:28:00.914Z,6.54
2023-04-20T19:30:27.283Z,7.94
2023-04-20T19:32:53.756Z,7.26
2023-04-20T19:35:20.134Z,7.40
2023-04-20T19:37:46.470Z,8.04
2023-04-20T19:40:12.800Z,7.49
2023-04-20T19:42:39.183Z,6.44
2023-04-20T19:45:05.534Z,6.75
2023-04-20T19:47:31.979Z,6.57
2023-04-20T19:49:58.391Z,7.46
2023-04-20T19:52:25.554Z,6.94
2023-04-20T19:54:51.930Z,7.22
2023-04-20T19:57:18.279Z,7.50
2023-04-20T19:59:44.683Z,6.86
2023-04-20T20:02:11.210Z,7.72
2023-04-20T20:04:38.028Z,6.45
2023-04-20T20:07:04.506Z,6.26
2023-04-20T20:09:30.893Z,6.20
2023-04-20T20:11:57.246Z,6.53
2023-04-20T20:14:23.622Z,6.23
2023-04-20T20:16:49.970Z,6.27
2023-04-20T20:19:17.130Z,6.43
2023-04-20T20:21:43.715Z,7.02
2023-04-20T20:24:10.073Z,6.39
2023-04-20T20:26:36.498Z,6.23
2023-04-20T20:29:02.878Z,6.56
2023-04-20T20:31:29.255Z,6.82
2023-04-20T20:33:55.607Z,6.76
2023-04-20T20:36:21.953Z,6.55
2023-04-20T20:38:48.339Z,6.69
2023-04-20T20:41:14.729Z,6.53
2023-04-20T20:43:41.189Z,6.52
2023-04-20T20:46:07.707Z,6.89
2023-04-20T20:48:34.140Z,6.87
2023-04-20T20:51:00.520Z,7.02
2023-04-20T20:53:26.870Z,7.24
2023-04-20T20:55:53.217Z,7.55
2023-04-20T20:58:19.553Z,7.28
2023-04-20T21:00:45.981Z,7.54
2023-04-20T21:03:12.521Z,7.34
2023-04-20T21:05:38.944Z,7.90
2023-04-20T21:08:05.337Z,7.86
2023-04-20T21:10:31.734Z,8.19
2023-04-20T21:12:58.094Z,8.33
2023-04-20T21:15:24.447Z,8.36
2023-04-20T21:17:50.872Z,8.54
2023-04-20T21:20:17.317Z,8.95
2023-04-20T21:22:43.681Z,8.82
2023-04-20T21:25:10.035Z,8.72
2023-04-20T21:27:36.399Z,8.78
2023-04-20T21:30:02.769Z,8.79
2023-04-20T21:32:29.121Z,8.97
2023-04-20T21:34:55.486Z,9.07
2023-04-20T21:37:21.866Z,9.31
2023-04-20T21:39:48.216Z,9.67
2023-04-20T21:42:14.583Z,9.14
2023-04-20T21:44:40.942Z,9.16
2023-04-20T21:47:07.302Z,9.30
2023-04-20T21:49:33.655Z,9.57
2023-04-20T21:52:00.039Z,9.28
2023-04-20T21:54:26.413Z,9.88
2023-04-20T21:56:52.792Z,9.17
2023-04-20T21:59:19.313Z,9.19
2023-04-20T22:01:45.865Z,9.09
2023-04-20T22:04:12.487Z,9.60
2023-04-20T22:06:38.953Z,9.64
2023-04-20T22:09:05.334Z,9.88
2023-04-20T22:11:31.710Z,9.59
2023-04-20T22:13:58.080Z,10.05
2023-04-20T22:16:24.613Z,10.67
2023-04-20T22:18:51.072Z,11.53
2023-04-20T22:21:17.461Z,9.49
2023-04-20T22:23:43.844Z,9.80
2023-04-20T22:26:10.225Z,9.87
2023-04-20T22:28:36.593Z,9.64
2023-04-20T22:31:03.052Z,9.67
2023-04-20T22:33:29.466Z,10.34
2023-04-20T22:35:55.837Z,9.64
2023-04-20T22:38:22.288Z,10.35
2023-04-20T22:40:48.708Z,9.90
2023-04-20T22:43:15.069Z,10.16
2023-04-20T22:45:41.464Z,10.29
2023-04-20T22:48:07.864Z,10.31
2023-04-20T22:50:34.270Z,10.36
2023-04-20T22:53:00.646Z,10.36
2023-04-20T22:55:26.996Z,10.32
2023-04-20T22:57:53.380Z,10.77
2023-04-20T23:00:19.720Z,10.38
2023-04-20T23:02:46.243Z,10.45
2023-04-20T23:05:12.711Z,10.87
2023-04-20T23:07:39.064Z,10.17
2023-04-20T23:10:05.454Z,10.23
2023-04-20T23:12:31.809Z,10.22
2023-04-20T23:14:58.208Z,10.00
2023-04-20T23:17:24.642Z,9.93
2023-04-20T23:19:51.149Z,10.02
2023-04-20T23:22:17.603Z,9.67
2023-04-20T23:24:43.961Z,9.86
2023-04-20T23:27:10.363Z,9.57
2023-04-20T23:29:36.719Z,9.39
2023-04-20T23:32:03.241Z,9.41
2023-04-20T23:34:29.727Z,9.49
2023-04-20T23:36:56.126Z,9.48
2023-04-20T23:39:22.492Z,9.21
2023-04-20T23:41:48.881Z,8.83
2023-04-20T23:44:15.266Z,8.49
2023-04-20T23:46:41.814Z,8.75
2023-04-20T23:49:08.188Z,8.93
2023-04-20T23:51:34.544Z,8.66
2023-04-20T23:54:00.927Z,9.12
2023-04-20T23:56:27.291Z,8.78
2023-04-20T23:58:53.657Z,8.75
